aussie ACE2'S WEATHER STATIONaussie

Speaker Icon Turns Ambient Background Sounds ON/OFF
Select which page style from below(a cookie will remember your selection for future use for style)
Standard Style Theme Current Conditions Style Changer

Latitude S 35° 06' 39"   Longitude E 138° 31' 40"   Elevation 102 m

OBSERVATIONS  0 - 24  HOURS

00-24 HOURS 24-48 HOURS 48-72 HOURS 72-96 HOURS 96-120 HOURS Navigation Menu

Date/Time
WST
temperature
°C
Dew Point
°C
Humidity
%
Wind Speed
km/h
Wind Gust
km/h
Wind
Direction
Barometer
mb
Rain Today
mm
21/03:00am 33.2 3.1 15 6.1 23.4 1013.2 0.0
21/02:30am 32.6 2.6 15 3.6 20.9 1013.2 0.0
21/02:00am 32.4 2.5 15 9.7 14.8 1013.2 0.0
21/01:30am 32.2 2.3 15 5.0 19.4 1013.2 0.0
21/01:00am 32.4 2.5 15 13.3 20.9 1013.2 0.0
21/12:30am 32.9 2.9 15 5.0 15.8 1013.2 0.0
21/12:00am 32.8 2.8 15 3.6 13.3 1013.2 0.0
20/11:30pm 33.4 3.3 15 11.2 13.3 1013.2 0.0
20/11:00pm 34.1 3.8 15 11.2 15.8 1013.2 0.0
20/10:30pm 34.4 4.1 15 5.0 15.8 1013.2 0.0
20/10:00pm 35.3 4.8 15 6.1 19.4 1013.2 0.0
20/09:30pm 35.5 4.9 15 3.6 13.3 1013.2 0.0
20/09:00pm 35.7 5.1 15 5.0 13.3 1013.2 0.0
20/08:30pm 35.8 5.2 15 5.0 11.2 1013.2 0.0
20/08:00pm 35.9 5.3 15 2.5 13.3 1013.2 0.0
20/07:30pm 36.9 6.0 15 3.6 11.2 1013.2 0.0
20/07:00pm 37.9 2.4 11 5.0 14.8 1013.2 0.0
20/06:30pm 39.0 3.2 11 3.6 8.6 1013.2 0.0
20/06:00pm 41.1 4.8 11 3.6 12.2 1013.2 0.0
20/05:30pm 41.2 4.9 11 5.0 12.2 1013.2 0.0
20/05:00pm 42.1 5.6 11 6.1 18.4 1013.2 0.0
20/04:30pm 41.6 5.2 11 5.0 11.2 1013.2 0.0
20/04:00pm 42.2 5.7 11 6.1 9.7 1013.2 0.0
20/03:30pm 41.9 5.5 11 5.0 9.7 1013.2 0.0
20/03:00pm 42.3 5.8 11 6.1 11.2 1013.2 0.0
20/02:30pm 41.6 5.2 11 5.0 13.3 1013.2 0.0
20/02:00pm 40.8 4.6 11 8.6 19.4 1013.2 0.0
20/01:30pm 41.1 4.8 11 5.0 15.8 1013.2 0.0
20/01:00pm 41.5 5.1 11 6.1 13.3 1013.2 0.0
20/12:30pm 41.2 4.9 11 3.6 9.7 1013.2 0.0
20/12:00pm 41.1 4.8 11 7.2 12.2 1013.2 0.0
20/11:30am 40.4 4.3 11 7.2 30.6 1013.2 0.0
20/11:00am 40.7 4.5 11 3.6 17.3 1013.2 0.0
20/10:30am 40.4 4.3 11 6.1 17.3 1013.2 0.0
20/10:00am 39.9 3.9 11 3.6 20.9 1013.2 0.0
20/09:30am 38.8 3.1 11 6.1 13.3 1013.2 0.0
20/09:00am 38.2 2.6 11 3.6 19.4 1013.2 0.0
20/08:30am 36.8 6.0 15 3.6 14.8 1013.2 0.0
20/08:00am 35.1 3.6 14 15.8 20.9 1013.2 0.0
20/07:30am 33.3 2.2 14 3.6 23.4 1013.2 0.0
20/07:00am 29.0 3.8 20 7.2 14.8 1013.2 0.0
20/06:30am 24.6 3.3 25 9.7 12.2 1013.2 0.0
20/06:00am 23.5 4.5 29 0.0 5.0 1013.2 0.0
20/05:30am 20.4 7.1 42 0.0 0.0 1013.2 0.0
20/05:00am 20.0 9.0 49 1.1 2.5 1013.2 0.0
20/04:30am 20.4 9.3 49 0.0 3.6 1013.2 0.0
20/04:00am 19.7 9.0 50 0.0 0.0 1013.2 0.0
20/03:30am 19.8 8.8 49 0.0 2.5 1013.2 0.0
20/03:00am 20.8 7.8 43 0.0 2.5 1013.2 0.0
20/02:30am 20.6 7.9 44 0.0 3.6 1013.2 0.0

OBSERVATIONS  24 - 48  HOURS

00-24 HOURS 24-48 HOURS 48-72 HOURS 72-96 HOURS 96-120 HOURS Navigation Menu

Date/Time
WST
temperature
°C
Dew Point
°C
Humidity
%
Wind Speed
km/h
Wind Gust
km/h
Wind
Direction
Barometer
mb
Rain Today
mm
20/03:00am 20.8 7.8 43 0.0 2.5 1013.2 0.0
20/02:30am 20.6 7.9 44 0.0 3.6 1013.2 0.0
20/02:00am 20.0 8.4 47 1.1 3.6 1013.2 0.0
20/01:30am 21.2 8.1 43 0.0 2.5 1013.2 0.0
20/01:00am 22.0 8.5 42 0.0 3.6 1013.2 0.0
20/12:30am 22.1 8.6 42 2.5 8.6 1013.2 0.0
20/12:00am 22.1 8.6 42 3.6 8.6 1013.2 0.0
19/11:30pm 22.2 9.4 44 2.5 7.2 1013.2 0.0
19/11:00pm 21.8 10.3 48 7.2 11.2 1013.2 0.0
19/10:30pm 22.0 10.8 49 5.0 8.6 1013.2 0.0
19/10:00pm 22.8 8.9 41 3.6 7.2 1013.2 0.0
19/09:30pm 22.2 9.7 45 6.1 12.2 1013.2 0.0
19/09:00pm 21.5 11.0 51 3.6 12.2 1013.2 0.0
19/08:30pm 21.4 12.0 55 5.0 13.3 1013.2 0.0
19/08:00pm 21.8 12.4 55 3.6 13.3 1013.2 0.0
19/07:30pm 23.3 12.0 49 6.1 9.7 1013.2 0.0
19/07:00pm 24.8 12.1 45 5.0 9.7 1013.2 0.0
19/06:30pm 27.1 12.7 41 3.6 7.2 1013.2 0.0
19/06:00pm 30.3 13.2 35 3.6 7.2 1013.2 0.0
19/05:30pm 31.1 12.0 31 2.5 12.2 1013.2 0.0
19/05:00pm 34.3 10.9 24 2.5 9.7 1013.2 0.0
19/04:30pm 34.2 10.8 24 1.1 5.0 1013.2 0.0
19/04:00pm 32.0 12.8 31 6.1 9.7 1013.2 0.0
19/03:30pm 31.6 11.9 30 5.0 13.3 1013.2 0.0
19/03:00pm 30.9 12.3 32 2.5 7.2 1013.2 0.0
19/02:30pm 30.9 13.2 34 8.6 11.2 1013.2 0.0
19/02:00pm 29.9 13.2 36 5.0 9.7 1013.2 0.0
19/01:30pm 30.7 12.1 32 8.6 12.2 1013.2 0.0
19/01:00pm 31.6 12.4 31 6.1 14.8 1013.2 0.0
19/12:30pm 31.7 9.3 25 2.5 8.6 1013.2 0.0
19/12:00pm 30.5 11.0 30 6.1 9.7 1013.2 0.0
19/11:30am 30.3 11.8 32 7.2 11.2 1013.2 0.0
19/11:00am 29.6 11.6 33 1.1 8.6 1013.2 0.0
19/10:30am 28.7 11.3 34 1.1 7.2 1013.2 0.0
19/10:00am 26.3 12.0 41 5.0 9.7 1013.2 0.0
19/09:30am 25.4 12.6 45 5.0 12.2 1013.2 0.0
19/09:00am 23.3 12.3 50 3.6 9.7 1013.2 0.0
19/08:30am 22.8 12.2 51 5.0 7.2 1013.2 0.0
19/08:00am 20.1 12.1 60 5.0 8.6 1013.2 0.0
19/07:30am 18.4 11.2 63 6.1 13.3 1013.2 0.0
19/07:00am 14.9 10.3 74 3.6 8.6 1013.2 0.0
19/06:30am 13.5 9.7 78 2.5 7.2 1013.2 0.0
19/06:00am 11.9 8.9 82 0.0 1.1 1013.2 0.0
19/05:30am 11.8 8.8 82 0.0 0.0 1013.2 0.0
19/05:00am 11.9 9.1 83 0.0 2.5 1013.2 0.0
19/04:30am 12.1 8.9 81 0.0 0.0 1013.2 0.0
19/04:00am 12.5 8.4 76 0.0 0.0 1013.2 0.0
19/03:30am 13.7 9.9 78 0.0 3.6 1013.2 0.0
19/03:00am 13.7 9.6 76 1.1 3.6 1013.2 0.0
19/02:30am 13.8 8.6 71 0.0 0.0 1013.2 0.0

OBSERVATIONS  48 - 72  HOURS

00-24 HOURS 24-48 HOURS 48-72 HOURS 72-96 HOURS 96-120 HOURS Navigation Menu

Date/Time
WST
temperature
°C
Dew Point
°C
Humidity
%
Wind Speed
km/h
Wind Gust
km/h
Wind
Direction
Barometer
mb
Rain Today
mm
19/03:00am 13.7 9.6 76 1.1 3.6 1013.2 0.0
19/02:30am 13.8 8.6 71 0.0 0.0 1013.2 0.0
19/02:00am 13.8 8.4 70 0.0 2.5 1013.2 0.0
19/01:30am 14.2 8.2 67 0.0 0.0 1013.2 0.0
19/01:00am 14.9 8.6 66 0.0 2.5 1013.2 0.0
19/12:30am 15.0 8.0 63 0.0 1.1 1013.2 0.0
19/12:01am 15.6 8.1 61 0.0 0.0 1013.2 0.0
18/11:30pm 16.1 7.6 57 0.0 0.0 1013.2 0.0
18/11:00pm 16.9 7.3 53 0.0 0.0 1013.2 0.0
18/10:30pm 18.0 5.9 45 0.0 0.0 1013.2 0.0
18/10:00pm 18.8 5.6 42 0.0 0.0 1013.2 0.0
18/09:30pm 20.2 5.4 38 0.0 0.0 1013.2 0.0
18/09:00pm 22.2 5.2 33 0.0 6.1 1013.2 0.0
18/08:30pm 23.5 2.9 26 2.5 9.7 1013.2 0.0
18/08:00pm 25.1 1.9 22 3.6 9.7 1013.2 0.0
18/07:30pm 26.7 2.6 21 3.6 5.0 1013.2 0.0
18/07:00pm 28.1 3.1 20 5.0 8.6 1013.2 0.0
18/06:30pm 29.7 4.4 20 2.5 9.7 1013.2 0.0
18/06:00pm 34.5 3.2 14 6.1 8.6 1013.2 0.0
18/05:30pm 34.1 2.9 14 3.6 11.2 1013.2 0.0
18/05:00pm 34.6 7.6 19 7.2 13.3 1013.2 0.0
18/04:30pm 36.0 5.3 15 1.1 7.2 1013.2 0.0
18/04:00pm 35.2 8.1 19 6.1 11.2 1013.2 0.0
18/03:30pm 35.7 5.1 15 2.5 7.2 1013.2 0.0
18/03:00pm 35.4 3.9 14 2.5 5.0 1013.2 0.0
18/02:30pm 34.2 2.9 14 3.6 6.1 1013.2 0.0
18/02:00pm 34.6 3.2 14 2.5 7.2 1013.2 0.0
18/01:30pm 34.3 3.0 14 2.5 7.2 1013.2 0.0
18/01:00pm 33.1 2.1 14 3.6 7.2 1013.2 0.0
18/12:30pm 32.0 0.2 13 2.5 6.1 1013.2 0.0
18/12:00pm 31.5 -0.2 13 2.5 6.1 1013.2 0.0
18/11:30am 31.4 -0.3 13 3.6 11.2 1013.2 0.0
18/11:00am 30.2 4.8 20 3.6 5.0 1013.2 0.0
18/10:30am 29.3 4.0 20 3.6 11.2 1013.2 0.0
18/10:00am 29.4 4.1 20 6.1 18.4 1013.2 0.0
18/09:30am 28.4 4.7 22 2.5 8.6 1013.2 0.0
18/09:00am 27.0 6.4 27 3.6 8.6 1013.2 0.0
18/08:30am 26.0 4.5 25 7.2 9.7 1013.2 0.0
18/08:00am 26.1 5.1 26 0.0 3.6 1013.2 0.0
18/07:30am 23.1 5.5 32 0.0 3.6 1013.2 0.0
18/07:00am 14.4 6.5 59 2.5 3.6 1013.2 0.0
18/06:30am 12.0 5.6 65 0.0 0.0 1013.2 0.0
18/06:00am 12.8 5.5 61 0.0 5.0 1013.2 0.0
18/05:30am 12.0 7.5 74 3.6 7.2 1013.2 0.0
18/05:00am 10.1 7.2 82 1.1 3.6 1013.2 0.0
18/04:30am 9.9 7.0 82 1.1 2.5 1013.2 0.0
18/04:00am 9.9 6.6 80 0.0 0.0 1013.2 0.0
18/03:30am 10.6 7.3 80 0.0 0.0 1013.2 0.0
18/03:00am 10.8 7.3 79 0.0 0.0 1013.2 0.0
18/02:30am 11.1 7.8 80 0.0 3.6 1013.2 0.0

OBSERVATIONS  72 - 96  HOURS

00-24 HOURS 24-48 HOURS 48-72 HOURS 72-96 HOURS 96-120 HOURS Navigation Menu

Date/Time
WST
temperature
°C
Dew Point
°C
Humidity
%
Wind Speed
km/h
Wind Gust
km/h
Wind
Direction
Barometer
mb
Rain Today
mm
18/03:00am 10.8 7.3 79 0.0 0.0 1013.2 0.0
18/02:30am 11.1 7.8 80 0.0 3.6 1013.2 0.0
18/02:00am 10.8 7.1 78 1.1 3.6 1013.2 0.0
18/01:30am 11.1 7.0 76 1.1 3.6 1013.2 0.0
18/01:00am 11.3 6.6 73 0.0 3.6 1013.2 0.0
18/12:30am 11.6 6.7 72 0.0 0.0 1013.2 0.0
18/12:00am 12.1 7.0 71 0.0 1.1 1013.2 0.0
17/11:30pm 12.7 6.7 67 0.0 2.5 1013.2 0.0
17/11:00pm 13.5 7.1 65 0.0 7.2 1013.2 0.0
17/10:30pm 13.7 7.5 66 3.6 11.2 1013.2 0.0
17/10:00pm 13.9 7.4 65 3.6 6.1 1013.2 0.0
17/09:30pm 14.0 7.3 64 2.5 7.2 1013.2 0.0
17/09:00pm 14.6 7.4 62 2.5 7.2 1013.2 0.0
17/08:30pm 15.6 8.1 61 1.1 5.0 1013.2 0.0
17/08:00pm 16.5 8.5 59 1.1 3.6 1013.2 0.0
17/07:30pm 17.3 9.5 60 1.1 7.2 1013.2 0.0
17/07:00pm 18.0 9.1 56 3.6 8.6 1013.2 0.0
17/06:30pm 18.7 8.7 52 3.6 11.2 1013.2 0.0
17/06:00pm 22.8 8.5 40 7.2 9.7 1013.2 0.0
17/05:30pm 23.0 8.7 40 5.0 9.7 1013.2 0.0
17/05:00pm 23.5 8.4 38 6.1 12.2 1013.2 0.0
17/04:30pm 24.2 8.2 36 3.6 9.7 1013.2 0.0
17/04:00pm 23.4 8.7 39 7.2 9.7 1013.2 0.0
17/03:30pm 23.5 8.4 38 2.5 9.7 1013.2 0.0
17/03:00pm 22.3 8.4 41 9.7 13.3 1013.2 0.0
17/02:30pm 22.5 8.2 40 12.2 15.8 1013.2 0.0
17/02:00pm 22.9 7.5 37 3.6 12.2 1013.2 0.0
17/01:30pm 22.8 7.8 38 3.6 13.3 1013.2 0.0
17/01:00pm 21.7 8.2 42 8.6 14.8 1013.2 0.0
17/12:30pm 21.5 7.7 41 2.5 13.3 1013.2 0.0
17/12:00pm 10.8 7.3 79 0.0 0.0 1013.2 0.0
17/11:30am 23.2 5.6 32 2.5 11.2 1013.2 0.0
17/11:00am 22.9 5.3 32 6.1 8.6 1013.2 0.0
17/10:30am 21.1 5.5 36 2.5 8.6 1013.2 0.0
17/10:00am 19.0 6.5 44 6.1 9.7 1013.2 0.0
17/09:30am 17.0 6.8 51 1.1 8.6 1013.2 0.0
17/09:00am 15.9 6.3 53 3.6 9.7 1013.2 0.0
17/08:30am 16.5 6.3 51 1.1 5.0 1013.2 0.0
17/08:00am 16.9 8.3 57 3.6 6.1 1013.2 0.0
17/07:30am 11.9 7.6 75 0.0 0.0 1013.2 0.0
17/07:00am 9.3 5.3 76 0.0 0.0 1013.2 0.0
17/06:30am 8.4 3.8 73 0.0 0.0 1013.2 0.0
17/06:00am 9.0 4.0 71 0.0 0.0 1013.2 0.0
17/05:30am 9.7 4.9 72 0.0 0.0 1013.2 0.0
17/05:00am 9.7 4.7 71 0.0 0.0 1013.2 0.0
17/04:30am 9.4 4.2 70 0.0 0.0 1013.2 0.0
17/04:00am 10.2 5.0 70 0.0 0.0 1013.2 0.0
17/03:30am 10.6 5.4 70 0.0 1.1 1013.2 0.0
17/03:00am 10.6 5.6 71 0.0 0.0 1013.2 0.0
17/02:30am 10.1 4.9 70 0.0 0.0 1013.2 0.0

OBSERVATIONS  96 - 120  HOURS

00-24 HOURS 24-48 HOURS 48-72 HOURS 72-96 HOURS 96-120 HOURS Navigation Menu

Date/Time
WST
temperature
°C
Dew Point
°C
Humidity
%
Wind Speed
km/h
Wind Gust
km/h
Wind
Direction
Barometer
mb
Rain Today
mm
17/03:00am 10.6 5.6 71 0.0 0.0 1013.2 0.0
17/02:30am 10.1 4.9 70 0.0 0.0 1013.2 0.0
17/02:00am 10.7 5.5 70 0.0 1.1 1013.2 0.0
17/01:30am 10.7 5.7 71 0.0 0.0 1013.2 0.0
17/01:00am 10.6 5.6 71 0.0 0.0 1013.2 0.0
17/12:30am 10.7 5.5 70 0.0 0.0 1013.2 0.0
17/12:00am 10.4 5.4 71 1.1 3.6 1013.2 0.0
16/11:30pm 9.9 4.9 71 0.0 2.5 1013.2 0.0
16/11:00pm 10.1 4.9 70 0.0 2.5 1013.2 0.0
16/10:30pm 10.6 5.2 69 1.1 3.6 1013.2 0.0
16/10:00pm 11.2 5.3 67 1.1 6.1 1013.2 0.0
16/09:30pm 11.5 5.2 65 2.5 6.1 1013.2 0.0
16/09:00pm 12.0 5.2 63 0.0 8.6 1013.2 0.0
16/08:30pm 12.7 5.1 60 1.1 8.6 1013.2 0.0
16/08:00pm 14.0 5.1 55 2.5 7.2 1013.2 0.0
16/07:30pm 15.2 5.4 52 2.5 7.2 1013.2 0.0
16/07:00pm 16.1 5.7 50 7.2 13.3 1013.2 0.0
16/06:30pm 17.3 5.6 46 5.0 8.6 1013.2 0.0
16/06:00pm 21.0 5.8 37 5.0 14.8 1013.2 0.0
16/05:30pm 22.2 6.8 37 5.0 11.2 1013.2 0.0
16/05:00pm 21.2 6.7 39 11.2 23.4 1013.2 0.0
16/04:30pm 20.1 6.8 42 13.3 27.0 1013.2 0.0
16/04:00pm 20.6 6.9 41 14.8 25.6 1013.2 0.0
16/03:30pm 20.4 6.7 41 8.6 25.6 1013.2 0.0
16/03:00pm 21.3 7.5 41 8.6 15.8 1013.2 0.0
16/02:30pm 20.7 7.0 41 7.2 17.3 1013.2 0.0
16/02:00pm 20.3 6.6 41 8.6 17.3 1013.2 0.0
16/01:30pm 20.6 7.2 42 5.0 15.8 1013.2 0.0
16/01:00pm 20.6 6.5 40 11.2 18.4 1013.2 0.0
16/12:30pm 20.4 6.7 41 7.2 15.8 1013.2 0.0
16/12:10pm 18.0 5.2 43 1.1 2.5 1013.2 0.0
16/11:49am 18.0 5.2 43 1.1 2.5 1013.2 0.0
16/11:19am 16.7 5.9 49 2.5 5.0 1013.2 0.0
16/10:49am 20.2 6.9 42 0.0 2.5 1013.2 0.0
16/10:19am 15.5 6.8 56 2.5 3.6 1013.2 0.0
16/09:30am 17.8 4.7 42 1.1 9.7 1013.2 0.0
16/09:00am 16.8 5.7 48 2.5 8.6 1013.2 0.0
16/08:30am 19.0 5.8 42 1.1 7.2 1013.2 0.0
16/08:00am 14.9 6.7 58 0.0 3.6 1013.2 0.0
16/07:30am 13.8 6.2 60 2.5 6.1 1013.2 0.0
16/07:00am 9.0 6.1 82 2.5 3.6 1013.2 0.0
16/06:30am 6.8 5.0 88 1.1 2.5 1013.2 0.0
16/06:00am 6.3 4.5 88 0.0 2.5 1013.2 0.0
16/05:30am 6.3 4.3 87 2.5 3.6 1013.2 0.0
16/05:00am 6.2 3.9 85 1.1 2.5 1013.2 0.0
16/04:30am 6.6 3.9 83 0.0 0.0 1013.2 0.0
16/04:00am 7.2 4.3 82 0.0 0.0 1013.2 0.0
16/03:30am 8.2 4.0 75 0.0 0.0 1013.2 0.0
16/03:00am 9.0 4.8 75 0.0 0.0 1013.2 0.0
16/02:30am 9.1 4.7 74 0.0 5.0 1013.2 0.0

00-24 HOURS 24-48 HOURS 48-72 HOURS 72-96 HOURS 96-120 HOURS Navigation Menu


PLEASE CONSIDER LIKING/SHARING ON FACEBOOK WITH LINK ABOVE
THANK YOU.

Check out my video archive on my YouTube channel which has all my time-lapse videos created
Please feel free to donate to help with improvements and keep this site going with the link below(PayPal)
Cumulus Top Weather Sites World Weather Websites Paulen Top 100 Weatherstation List

Page updated 21/11/2019 3:00 AM
powered by Cumulusv1.9.4 (1099)
Free counters!
Insect leftPhyllium MonteithiInsect Right
Visit my FaceBook group : Australian Leaf Insect Care/Information Sharing


Speaker Icon Turns Ambient Background Sounds ON/OFF